aviador You're here:

LRBS Decoded Metar

BUCHAREST in ROMANIA
Report Time2018-06-23 05:30:00
UTC Time2018-06-23 06:01:48
Flight Rules vfr VFR
Wind240° at 07 kt
W.Decomp.*RWY 25: 6.8 kt HW 1.7 kt LCW
W.Rank240° ranks 8
Current wind is above 240° avg. (5.3)
Visibility9999 m
Phenomena:N/A
Clouds:Few 020 Hf
Scattered 031 Hf
Few CB 045 Hf
Expected CloudBase > 2,400 ft AGL from Temp-Dew spread
CeilingNone
Temp16°C (ISA +2)
Dew Point10°C (68% RH)
AAT13.6°C
QNH1012 hPa
Density Alt689 ft
Elevation299 ft
Report Wrong Elevation
Raw Report
METAR LRBS 230530Z 24007KT 9999 FEW020 SCT031 FEW045CB 16/10 Q1012
NOSIG=

Extra information for LRBS:More info

Metar Taf Metar & Taf Last 4 Metars F.Rules Stats Wind Profile Meteogram Temp Stats Airport Information Weather charts Add Link Nearby VenuesMetar ALERT Operation Metar Decoded Social comments